Mebane, North Carolina
Current Conditions -  °F | °C
As of 2:54 PM on Sunday 23 Nov 2014 (Local Time) from KBUY Reporting Station
Light Rain Light Rain  
Wind Chill: 55°   Ceiling: 1300
Heat Index: 55°   Visibility: 10mi
Dew Point: 50°   Wind: 5mph
Humidity: 83%   Direction: 100°E
Pressure: 30.04"   Gusts: NA
Location:  36.1°N, 79.27°W
Report Text: KBUY 231954Z AUTO 10004KT 10SM -RA OVC013 13/10 A3004 RMK AO2 RAB29 SLP172 P0000 T01280100
Loading
Personal Weather Stations






























Interactive Weather Map New forecast layout! Learn more

10-Day Weather Forecast

Advertisements
Track Severe Weather on mobile